createdAt,value
2018-11-13T00:00:01.604Z,1003.27
2018-11-13T00:05:01.853Z,1003.37
2018-11-13T00:10:02.255Z,1003.37
2018-11-13T00:15:01.542Z,1003.65
2018-11-13T00:20:01.857Z,1003.69
2018-11-13T00:25:02.101Z,1003.73
2018-11-13T00:30:01.409Z,1003.75
2018-11-13T00:35:01.750Z,1003.76
2018-11-13T00:40:02.054Z,1003.85
2018-11-13T00:45:01.334Z,1003.83
2018-11-13T00:50:01.668Z,1003.72
2018-11-13T00:55:03.629Z,1003.51
2018-11-13T01:00:02.052Z,1003.52
2018-11-13T01:05:01.465Z,1003.52
2018-11-13T01:10:01.852Z,1003.58
2018-11-13T01:15:02.406Z,1003.52
2018-11-13T01:20:01.727Z,1003.52
2018-11-13T01:25:01.963Z,1003.37
2018-11-13T01:30:02.248Z,1003.53
2018-11-13T01:35:01.571Z,1003.61
2018-11-13T01:40:01.915Z,1003.74
2018-11-13T01:45:02.169Z,1003.79
2018-11-13T01:50:01.575Z,1003.89
2018-11-13T01:55:01.876Z,1003.85
2018-11-13T02:00:02.137Z,1003.86
2018-11-13T02:05:01.544Z,1003.81
2018-11-13T02:10:01.958Z,1003.86
2018-11-13T02:15:02.287Z,1004.03
2018-11-13T02:20:01.725Z,1004.01
2018-11-13T02:25:02.024Z,1004.08
2018-11-13T02:30:01.633Z,1004.03
2018-11-13T02:35:01.936Z,1003.98
2018-11-13T02:40:02.206Z,1004.02
2018-11-13T02:45:01.470Z,1003.83
2018-11-13T02:50:01.818Z,1003.93
2018-11-13T02:55:02.093Z,1003.79
2018-11-13T03:00:01.414Z,1003.79
2018-11-13T03:05:01.758Z,1003.97
2018-11-13T03:10:02.092Z,1004.1
2018-11-13T03:15:01.540Z,1004.22
2018-11-13T03:20:01.919Z,1004.2
2018-11-13T03:25:02.204Z,1004.51
2018-11-13T03:30:01.576Z,1004.77
2018-11-13T03:35:01.896Z,1004.71
2018-11-13T03:40:02.226Z,1004.74
2018-11-13T03:45:01.552Z,1004.53
2018-11-13T03:50:01.848Z,1004.46
2018-11-13T03:55:02.136Z,1004.36
2018-11-13T04:00:01.410Z,1004.5
2018-11-13T04:05:01.740Z,1004.54
2018-11-13T04:10:02.030Z,1004.49
2018-11-13T04:15:01.410Z,1004.5
2018-11-13T04:20:01.737Z,1004.54
2018-11-13T04:25:02.026Z,1004.42
2018-11-13T04:30:01.328Z,1004.51
2018-11-13T04:35:01.716Z,1004.49
2018-11-13T04:40:02.028Z,1004.71
2018-11-13T04:45:01.330Z,1004.68
2018-11-13T04:50:01.631Z,1004.72
2018-11-13T04:55:02.014Z,1004.81
2018-11-13T05:00:01.355Z,1004.82
2018-11-13T05:05:01.767Z,1004.87
2018-11-13T05:10:02.364Z,1004.97
2018-11-13T05:15:01.680Z,1004.95
2018-11-13T05:20:01.997Z,1004.97
2018-11-13T05:25:01.306Z,1004.99
2018-11-13T05:30:01.635Z,1005.05
2018-11-13T05:35:01.948Z,1005.07
2018-11-13T05:40:02.160Z,1005.06
2018-11-13T05:45:01.427Z,1005.25
2018-11-13T05:50:01.729Z,1005.34
2018-11-13T05:55:02.017Z,1005.55
2018-11-13T06:00:01.786Z,1005.54
2018-11-13T06:05:02.098Z,1005.53
2018-11-13T06:10:01.412Z,1005.43
2018-11-13T06:15:01.735Z,1005.61
2018-11-13T06:20:02.038Z,1005.59
2018-11-13T06:25:01.361Z,1005.52
2018-11-13T06:30:01.690Z,1005.7
2018-11-13T06:35:01.986Z,1005.86
2018-11-13T06:40:02.284Z,1006.08
2018-11-13T06:45:01.574Z,1006.15
2018-11-13T06:50:01.872Z,1006.19
2018-11-13T06:55:02.126Z,1006.19
2018-11-13T07:00:01.456Z,1006.24
2018-11-13T07:05:02.072Z,1006.29
2018-11-13T07:10:01.463Z,1006.4
2018-11-13T07:15:01.812Z,1006.41
2018-11-13T07:20:02.137Z,1006.39
2018-11-13T07:25:01.462Z,1006.48
2018-11-13T07:30:01.753Z,1006.56
2018-11-13T07:35:02.041Z,1006.69
2018-11-13T07:40:01.380Z,1006.82
2018-11-13T07:45:01.696Z,1007.03
2018-11-13T07:50:01.990Z,1006.99
2018-11-13T07:55:02.266Z,1007.09
2018-11-13T08:00:01.568Z,1007.15
2018-11-13T08:05:01.837Z,1007.18
2018-11-13T08:10:02.108Z,1007.25
2018-11-13T08:15:01.463Z,1007.36
2018-11-13T08:20:01.784Z,1007.43
2018-11-13T08:25:02.082Z,1007.53
2018-11-13T08:30:01.395Z,1007.58
2018-11-13T08:35:02.327Z,1007.66
2018-11-13T08:40:01.676Z,1007.66
2018-11-13T08:45:01.952Z,1007.66
2018-11-13T08:50:02.216Z,1007.72
2018-11-13T08:55:01.512Z,1007.86
2018-11-13T09:00:01.830Z,1007.91
2018-11-13T09:05:02.422Z,1008
2018-11-13T09:10:01.899Z,1008.03
2018-11-13T09:15:02.154Z,1008.04
2018-11-13T09:20:01.488Z,1007.99
2018-11-13T09:25:01.782Z,1008.04
2018-11-13T09:30:02.450Z,1008.08
2018-11-13T09:35:01.956Z,1008.09
2018-11-13T09:40:02.200Z,1008.07
2018-11-13T09:45:01.935Z,1008.13
2018-11-13T09:50:02.281Z,1008.23
2018-11-13T09:55:01.586Z,1008.31
2018-11-13T10:00:02.288Z,1008.24
2018-11-13T10:05:04.955Z,1008.23
2018-11-13T10:10:01.927Z,1008.28
2018-11-13T10:15:02.187Z,1008.23
2018-11-13T10:20:01.511Z,1008.22
2018-11-13T10:25:01.837Z,1008.29
2018-11-13T10:30:02.413Z,1008.34
2018-11-13T10:35:01.714Z,1008.43
2018-11-13T10:40:02.131Z,1008.55
2018-11-13T10:45:01.449Z,1008.48
2018-11-13T10:50:01.852Z,1008.51
2018-11-13T10:55:02.108Z,1008.46
2018-11-13T11:00:01.410Z,1008.46
2018-11-13T11:05:01.734Z,1008.52
2018-11-13T11:10:02.004Z,1008.62
2018-11-13T11:15:01.333Z,1008.53
2018-11-13T11:20:01.695Z,1008.56
2018-11-13T11:25:02.256Z,1008.51
2018-11-13T11:30:01.558Z,1008.52
2018-11-13T11:35:01.852Z,1008.53
2018-11-13T11:40:02.138Z,1008.49
2018-11-13T11:45:01.436Z,1008.5
2018-11-13T11:50:01.750Z,1008.58
2018-11-13T11:55:02.046Z,1008.68
2018-11-13T12:00:01.376Z,1008.62
2018-11-13T12:05:01.681Z,1008.67
2018-11-13T12:10:01.968Z,1008.69
2018-11-13T12:15:02.243Z,1008.67
2018-11-13T12:20:01.560Z,1008.63
2018-11-13T12:25:01.873Z,1008.65
2018-11-13T12:30:02.126Z,1008.74
2018-11-13T12:35:01.489Z,1008.84
2018-11-13T12:40:01.807Z,1008.86
2018-11-13T12:45:02.050Z,1008.87
2018-11-13T12:50:01.341Z,1008.96
2018-11-13T12:55:01.667Z,1009.06
2018-11-13T13:00:01.921Z,1009.03
2018-11-13T13:05:02.167Z,1009.08
2018-11-13T13:10:01.452Z,1009.28
2018-11-13T13:15:02.157Z,1009.16
2018-11-13T13:20:01.497Z,1009.21
2018-11-13T13:25:01.718Z,1009.34
2018-11-13T13:30:01.995Z,1009.24
2018-11-13T13:35:01.345Z,1009.31
2018-11-13T13:40:01.631Z,1009.45
2018-11-13T13:45:01.914Z,1009.55
2018-11-13T13:50:02.173Z,1009.61
2018-11-13T13:55:01.463Z,1009.65
2018-11-13T14:00:02.689Z,1009.81
2018-11-13T14:05:02.117Z,1009.82
2018-11-13T14:10:01.433Z,1009.92
2018-11-13T14:15:02.432Z,1010.01
2018-11-13T14:20:01.921Z,1010.03
2018-11-13T14:25:02.249Z,1010.03
2018-11-13T14:30:01.530Z,1010.15
2018-11-13T14:35:01.838Z,1010.15
2018-11-13T14:40:02.081Z,1010.31
2018-11-13T14:45:01.729Z,1010.31
2018-11-13T14:50:01.992Z,1010.36
2018-11-13T14:55:01.896Z,1010.44
2018-11-13T15:00:02.149Z,1010.54
2018-11-13T15:05:01.472Z,1010.61
2018-11-13T15:10:01.766Z,1010.69
2018-11-13T15:15:02.229Z,1010.78
2018-11-13T15:20:01.535Z,1010.85
2018-11-13T15:25:01.837Z,1010.96
2018-11-13T15:30:02.117Z,1011.07
2018-11-13T15:35:01.447Z,1011.26
2018-11-13T15:40:01.778Z,1011.34
2018-11-13T15:45:02.520Z,1011.39
2018-11-13T15:50:01.828Z,1011.4
2018-11-13T15:55:02.062Z,1011.39
2018-11-13T16:00:02.666Z,1011.47
2018-11-13T16:05:02.001Z,1011.51
2018-11-13T16:10:01.416Z,1011.66
2018-11-13T16:15:01.928Z,1011.75
2018-11-13T16:20:02.209Z,1011.8
2018-11-13T16:25:01.441Z,1011.84
2018-11-13T16:30:02.031Z,1011.92
2018-11-13T16:35:01.387Z,1011.97
2018-11-13T16:40:01.733Z,1011.97
2018-11-13T16:45:02.123Z,1011.99
2018-11-13T16:50:01.461Z,1012.04
2018-11-13T16:55:01.758Z,1012.11
2018-11-13T17:00:02.345Z,1012.14
2018-11-13T17:05:02.011Z,1012.18
2018-11-13T17:10:01.373Z,1012.18
2018-11-13T17:15:01.846Z,1012.25
2018-11-13T17:20:02.121Z,1012.29
2018-11-13T17:25:01.419Z,1012.35
2018-11-13T17:30:02.087Z,1012.37
2018-11-13T17:35:01.451Z,1012.46
2018-11-13T17:40:01.782Z,1012.43
2018-11-13T17:45:02.031Z,1012.47
2018-11-13T17:50:01.303Z,1012.46
2018-11-13T17:55:01.594Z,1012.49
2018-11-13T18:00:01.884Z,1012.48
2018-11-13T18:05:02.133Z,1012.51
2018-11-13T18:10:01.429Z,1012.52
2018-11-13T18:15:01.695Z,1012.64
2018-11-13T18:20:02.024Z,1012.68
2018-11-13T18:25:01.319Z,1012.68
2018-11-13T18:30:01.665Z,1012.73
2018-11-13T18:35:01.957Z,1012.73
2018-11-13T18:40:02.217Z,1012.77
2018-11-13T18:45:01.866Z,1012.74
2018-11-13T18:50:02.308Z,1012.83
2018-11-13T18:55:01.604Z,1012.9
2018-11-13T19:00:01.899Z,1012.94
2018-11-13T19:05:02.376Z,1013.03
2018-11-13T19:10:01.744Z,1012.98
2018-11-13T19:15:02.113Z,1013.03
2018-11-13T19:20:02.230Z,1013.09
2018-11-13T19:25:01.634Z,1013.19
2018-11-13T19:30:02.291Z,1013.15
2018-11-13T19:35:01.969Z,1013.09
2018-11-13T19:40:02.300Z,1013.18
2018-11-13T19:45:01.769Z,1013.23
2018-11-13T19:50:02.042Z,1013.26
2018-11-13T19:55:01.347Z,1013.3
2018-11-13T20:00:01.616Z,1013.33
2018-11-13T20:05:01.921Z,1013.41
2018-11-13T20:10:02.201Z,1013.43
2018-11-13T20:15:01.484Z,1013.54
2018-11-13T20:20:01.753Z,1013.54
2018-11-13T20:25:01.982Z,1013.54
2018-11-13T20:30:02.343Z,1013.54
2018-11-13T20:35:01.672Z,1013.59
2018-11-13T20:40:01.933Z,1013.63
2018-11-13T20:45:02.168Z,1013.6
2018-11-13T20:50:01.471Z,1013.59
2018-11-13T20:55:01.763Z,1013.57
2018-11-13T21:00:02.016Z,1013.66
2018-11-13T21:05:01.326Z,1013.7
2018-11-13T21:10:01.646Z,1013.69
2018-11-13T21:15:01.975Z,1013.68
2018-11-13T21:20:02.195Z,1013.66
2018-11-13T21:25:01.443Z,1013.68
2018-11-13T21:30:02.243Z,1013.65
2018-11-13T21:35:01.658Z,1013.69
2018-11-13T21:40:01.922Z,1013.69
2018-11-13T21:45:02.171Z,1013.7
2018-11-13T21:50:02.019Z,1013.68
2018-11-13T21:55:01.329Z,1013.72
2018-11-13T22:00:01.619Z,1013.76
2018-11-13T22:05:01.956Z,1013.76
2018-11-13T22:10:02.197Z,1013.76
2018-11-13T22:15:01.863Z,1013.77
2018-11-13T22:20:02.149Z,1013.77
2018-11-13T22:25:01.434Z,1013.81
2018-11-13T22:30:03.127Z,1013.78
2018-11-13T22:35:01.466Z,1013.91
2018-11-13T22:40:01.761Z,1013.86
2018-11-13T22:45:01.997Z,1013.92
2018-11-13T22:50:01.299Z,1013.9
2018-11-13T22:55:01.585Z,1014
2018-11-13T23:00:02.020Z,1013.99
2018-11-13T23:05:01.358Z,1014
2018-11-13T23:10:01.628Z,1013.97
2018-11-13T23:15:02.072Z,1013.96
2018-11-13T23:20:01.463Z,1013.94
2018-11-13T23:25:01.691Z,1013.9
2018-11-13T23:30:01.964Z,1013.88
2018-11-13T23:35:02.263Z,1013.91
2018-11-13T23:40:01.782Z,1014.01
2018-11-13T23:45:02.049Z,1014.01
2018-11-13T23:50:01.336Z,1014.06
2018-11-13T23:55:01.668Z,1014.12
